sensor_id;sensor_type;location;lat;lon;timestamp;pressure;altitude;pressure_sealevel;temperature;humidity
6782;BME280;3428;42.670;23.284;2022-12-29T00:02:19;90313.16;;;-145.29;82.50
6782;BME280;3428;42.670;23.284;2022-12-29T00:04:45;90294.66;;;-145.29;82.62
6782;BME280;3428;42.670;23.284;2022-12-29T00:07:13;90276.16;;;-145.29;82.63
6782;BME280;3428;42.670;23.284;2022-12-29T00:09:40;90315.22;;;-145.29;83.06
6782;BME280;3428;42.670;23.284;2022-12-29T00:12:07;90321.38;;;-145.29;83.49
6782;BME280;3428;42.670;23.284;2022-12-29T00:14:33;90309.06;;;-145.29;83.51
6782;BME280;3428;42.670;23.284;2022-12-29T00:17:18;90335.78;;;-145.29;83.31
6782;BME280;3428;42.670;23.284;2022-12-29T00:19:44;90311.09;;;-145.29;83.14
6782;BME280;3428;42.670;23.284;2022-12-29T00:22:30;90282.34;;;-145.29;83.07
6782;BME280;3428;42.670;23.284;2022-12-29T00:25:14;90290.56;;;-145.29;82.79
6782;BME280;3428;42.670;23.284;2022-12-29T00:27:58;90243.28;;;-145.29;82.73
6782;BME280;3428;42.670;23.284;2022-12-29T00:30:42;90274.13;;;-145.29;82.93
6782;BME280;3428;42.670;23.284;2022-12-29T00:33:29;90288.50;;;-145.29;83.05
6782;BME280;3428;42.670;23.284;2022-12-29T00:36:17;90302.88;;;-145.29;83.36
6782;BME280;3428;42.670;23.284;2022-12-29T00:38:49;90315.22;;;-145.29;83.14
6782;BME280;3428;42.670;23.284;2022-12-29T00:41:34;90270.00;;;-145.29;82.82
6782;BME280;3428;42.670;23.284;2022-12-29T00:44:18;90290.56;;;-145.29;82.22
6782;BME280;3428;42.670;23.284;2022-12-29T00:46:45;90253.56;;;-145.29;81.39
6782;BME280;3428;42.670;23.284;2022-12-29T00:49:13;90288.50;;;-145.29;80.72
6782;BME280;3428;42.670;23.284;2022-12-29T00:51:59;90298.78;;;-145.29;80.33
6782;BME280;3428;42.670;23.284;2022-12-29T00:54:28;90261.78;;;-145.29;80.33
6782;BME280;3428;42.670;23.284;2022-12-29T00:56:55;90228.91;;;-145.29;80.11
6782;BME280;3428;42.670;23.284;2022-12-29T00:59:22;90282.34;;;-145.29;79.77
6782;BME280;3428;42.670;23.284;2022-12-29T01:01:50;90261.78;;;-145.29;79.70
6782;BME280;3428;42.670;23.284;2022-12-29T01:04:18;90272.06;;;-145.29;79.99
6782;BME280;3428;42.670;23.284;2022-12-29T01:06:45;90278.22;;;-145.29;80.71
6782;BME280;3428;42.670;23.284;2022-12-29T01:09:12;90329.59;;;-145.29;80.52
6782;BME280;3428;42.670;23.284;2022-12-29T01:11:58;90270.00;;;-145.29;80.46
6782;BME280;3428;42.670;23.284;2022-12-29T01:14:26;90286.44;;;-145.29;80.62
6782;BME280;3428;42.670;23.284;2022-12-29T01:16:53;90298.78;;;-145.29;80.45
6782;BME280;3428;42.670;23.284;2022-12-29T01:19:20;90311.09;;;-145.29;80.71
6782;BME280;3428;42.670;23.284;2022-12-29T01:21:47;90294.66;;;-145.29;80.97
6782;BME280;3428;42.670;23.284;2022-12-29T01:24:13;90309.06;;;-145.29;80.94
6782;BME280;3428;42.670;23.284;2022-12-29T01:26:40;90290.56;;;-145.29;80.65
6782;BME280;3428;42.670;23.284;2022-12-29T01:29:09;90284.41;;;-145.29;80.52
6782;BME280;3428;42.670;23.284;2022-12-29T01:31:36;90265.91;;;-145.29;80.44
6782;BME280;3428;42.670;23.284;2022-12-29T01:34:03;90245.34;;;-145.29;79.79
6782;BME280;3428;42.670;23.284;2022-12-29T01:36:29;90270.00;;;-145.29;79.76
6782;BME280;3428;42.670;23.284;2022-12-29T01:38:56;90278.22;;;-145.29;80.00
6782;BME280;3428;42.670;23.284;2022-12-29T01:41:23;90274.13;;;-145.29;80.44
6782;BME280;3428;42.670;23.284;2022-12-29T01:43:52;90261.78;;;-145.29;80.76
6782;BME280;3428;42.670;23.284;2022-12-29T01:46:23;90237.13;;;-145.29;80.53
6782;BME280;3428;42.670;23.284;2022-12-29T01:48:55;90323.44;;;-145.29;80.65
6782;BME280;3428;42.670;23.284;2022-12-29T01:51:25;90274.13;;;-145.29;80.39
6782;BME280;3428;42.670;23.284;2022-12-29T01:53:54;90302.88;;;-145.29;80.73
6782;BME280;3428;42.670;23.284;2022-12-29T01:56:23;90274.13;;;-145.29;81.04
6782;BME280;3428;42.670;23.284;2022-12-29T01:58:58;90298.78;;;-145.29;81.13
6782;BME280;3428;42.670;23.284;2022-12-29T02:01:28;90319.34;;;-145.29;80.90
6782;BME280;3428;42.670;23.284;2022-12-29T02:03:55;90263.84;;;-145.29;80.81
6782;BME280;3428;42.670;23.284;2022-12-29T02:06:23;90270.00;;;-145.29;80.59
6782;BME280;3428;42.670;23.284;2022-12-29T02:08:53;90282.34;;;-145.29;80.04
6782;BME280;3428;42.670;23.284;2022-12-29T02:11:23;90327.56;;;-145.29;79.79
6782;BME280;3428;42.670;23.284;2022-12-29T02:13:51;90292.63;;;-145.29;80.01
6782;BME280;3428;42.670;23.284;2022-12-29T02:16:36;90319.34;;;-145.29;80.36
6782;BME280;3428;42.670;23.284;2022-12-29T02:22:15;90302.88;;;-145.29;80.63
6782;BME280;3428;42.670;23.284;2022-12-29T02:28:00;90311.09;;;-145.29;81.03
6782;BME280;3428;42.670;23.284;2022-12-29T02:30:40;90288.50;;;-145.29;80.44
6782;BME280;3428;42.670;23.284;2022-12-29T02:33:18;90302.88;;;-145.29;80.17
6782;BME280;3428;42.670;23.284;2022-12-29T02:35:54;90290.56;;;-145.29;80.00
6782;BME280;3428;42.670;23.284;2022-12-29T02:38:33;90294.66;;;-145.29;79.99
6782;BME280;3428;42.670;23.284;2022-12-29T02:41:07;90286.44;;;-145.29;80.00
6782;BME280;3428;42.670;23.284;2022-12-29T02:43:39;90265.91;;;-145.29;79.70
6782;BME280;3428;42.670;23.284;2022-12-29T02:46:18;90249.47;;;-145.29;79.70
6782;BME280;3428;42.670;23.284;2022-12-29T02:48:50;90294.66;;;-145.29;80.00
6782;BME280;3428;42.670;23.284;2022-12-29T02:51:23;90253.56;;;-145.29;79.96
6782;BME280;3428;42.670;23.284;2022-12-29T02:53:52;90282.34;;;-145.29;79.82
6782;BME280;3428;42.670;23.284;2022-12-29T02:56:37;90296.72;;;-145.29;79.67
6782;BME280;3428;42.670;23.284;2022-12-29T02:59:04;90233.00;;;-145.29;79.60
6782;BME280;3428;42.670;23.284;2022-12-29T03:01:45;90298.78;;;-145.29;79.44
6782;BME280;3428;42.670;23.284;2022-12-29T03:04:36;90261.78;;;-145.29;79.41
6782;BME280;3428;42.670;23.284;2022-12-29T03:07:09;90298.78;;;-145.29;79.31
6782;BME280;3428;42.670;23.284;2022-12-29T03:09:43;90272.06;;;-145.29;78.91
6782;BME280;3428;42.670;23.284;2022-12-29T03:12:25;90311.09;;;-145.29;78.96
6782;BME280;3428;42.670;23.284;2022-12-29T03:15:17;90309.06;;;-145.29;79.39
6782;BME280;3428;42.670;23.284;2022-12-29T03:18:06;90286.44;;;-145.29;79.36
6782;BME280;3428;42.670;23.284;2022-12-29T03:20:38;90265.91;;;-145.29;79.45
6782;BME280;3428;42.670;23.284;2022-12-29T03:23:06;90309.06;;;-145.29;79.55
6782;BME280;3428;42.670;23.284;2022-12-29T03:25:35;90325.50;;;-145.29;80.60
6782;BME280;3428;42.670;23.284;2022-12-29T03:28:07;90286.44;;;-145.29;81.13
6782;BME280;3428;42.670;23.284;2022-12-29T03:30:36;90294.66;;;-145.29;81.44
6782;BME280;3428;42.670;23.284;2022-12-29T03:33:08;90335.78;;;-145.29;81.94
6782;BME280;3428;42.670;23.284;2022-12-29T03:35:38;90315.22;;;-145.29;81.94
6782;BME280;3428;42.670;23.284;2022-12-29T03:38:11;90335.78;;;-145.29;82.21
6782;BME280;3428;42.670;23.284;2022-12-29T03:40:43;90348.09;;;-145.29;83.00
6782;BME280;3428;42.670;23.284;2022-12-29T03:43:12;90364.53;;;-145.29;83.31
6782;BME280;3428;42.670;23.284;2022-12-29T03:45:39;90333.72;;;-145.29;83.01
6782;BME280;3428;42.670;23.284;2022-12-29T03:48:07;90331.66;;;-145.29;82.61
6782;BME280;3428;42.670;23.284;2022-12-29T03:50:34;90307.00;;;-145.29;82.23
6782;BME280;3428;42.670;23.284;2022-12-29T03:53:01;90327.56;;;-145.29;82.28
6782;BME280;3428;42.670;23.284;2022-12-29T03:55:27;90311.09;;;-145.29;82.28
6782;BME280;3428;42.670;23.284;2022-12-29T03:57:54;90380.97;;;-145.29;82.78
6782;BME280;3428;42.670;23.284;2022-12-29T04:03:44;90344.00;;;-145.29;82.65
6782;BME280;3428;42.670;23.284;2022-12-29T04:06:10;90339.88;;;-145.29;83.92
6782;BME280;3428;42.670;23.284;2022-12-29T04:08:37;90364.53;;;-145.29;85.08
6782;BME280;3428;42.670;23.284;2022-12-29T04:11:04;90352.22;;;-145.29;84.76
6782;BME280;3428;42.670;23.284;2022-12-29T04:13:31;90364.53;;;-145.29;84.88
6782;BME280;3428;42.670;23.284;2022-12-29T04:15:57;90380.97;;;-145.29;84.46
6782;BME280;3428;42.670;23.284;2022-12-29T04:18:24;90372.75;;;-145.29;84.23
6782;BME280;3428;42.670;23.284;2022-12-29T04:20:52;90339.88;;;-145.29;84.13
6782;BME280;3428;42.670;23.284;2022-12-29T04:23:31;90364.53;;;-145.29;83.83
6782;BME280;3428;42.670;23.284;2022-12-29T04:25:58;90356.31;;;-145.29;83.89
6782;BME280;3428;42.670;23.284;2022-12-29T04:28:25;90399.47;;;-145.29;84.42
6782;BME280;3428;42.670;23.284;2022-12-29T04:30:52;90389.22;;;-145.29;84.78
6782;BME280;3428;42.670;23.284;2022-12-29T04:33:19;90360.44;;;-145.29;84.75
6782;BME280;3428;42.670;23.284;2022-12-29T04:35:46;90339.88;;;-145.29;84.84
6782;BME280;3428;42.670;23.284;2022-12-29T04:38:15;90344.00;;;-145.29;84.96
6782;BME280;3428;42.670;23.284;2022-12-29T04:40:42;90368.66;;;-145.29;85.01
6782;BME280;3428;42.670;23.284;2022-12-29T04:43:09;90376.88;;;-145.29;85.46
6782;BME280;3428;42.670;23.284;2022-12-29T04:45:36;90356.31;;;-145.29;85.44
6782;BME280;3428;42.670;23.284;2022-12-29T04:48:04;90356.31;;;-145.29;85.01
6782;BME280;3428;42.670;23.284;2022-12-29T04:50:30;90378.94;;;-145.29;84.98
6782;BME280;3428;42.670;23.284;2022-12-29T04:52:57;90360.44;;;-145.29;85.35
6782;BME280;3428;42.670;23.284;2022-12-29T04:55:25;90385.09;;;-145.29;86.28
6782;BME280;3428;42.670;23.284;2022-12-29T04:57:52;90380.97;;;-145.29;86.75
6782;BME280;3428;42.670;23.284;2022-12-29T05:00:19;90372.75;;;-145.29;87.16
6782;BME280;3428;42.670;23.284;2022-12-29T05:02:46;90426.19;;;-145.29;87.50
6782;BME280;3428;42.670;23.284;2022-12-29T05:05:13;90395.38;;;-145.29;87.65
6782;BME280;3428;42.670;23.284;2022-12-29T05:07:40;90368.66;;;-145.29;87.91
6782;BME280;3428;42.670;23.284;2022-12-29T05:10:07;90389.22;;;-145.29;87.66
6782;BME280;3428;42.670;23.284;2022-12-29T05:12:37;90405.66;;;-145.29;87.41
6782;BME280;3428;42.670;23.284;2022-12-29T05:15:05;90393.31;;;-145.29;87.29
6782;BME280;3428;42.670;23.284;2022-12-29T05:17:32;90415.91;;;-145.29;86.71
6782;BME280;3428;42.670;23.284;2022-12-29T05:19:59;90335.78;;;-145.29;85.93
6782;BME280;3428;42.670;23.284;2022-12-29T05:22:26;90405.66;;;-145.29;85.56
6782;BME280;3428;42.670;23.284;2022-12-29T05:24:53;90344.00;;;-145.29;85.16
6782;BME280;3428;42.670;23.284;2022-12-29T05:27:20;90380.97;;;-145.29;84.53
6782;BME280;3428;42.670;23.284;2022-12-29T05:29:48;90360.44;;;-145.29;84.35
6782;BME280;3428;42.670;23.284;2022-12-29T05:32:14;90321.38;;;-145.29;84.26
6782;BME280;3428;42.670;23.284;2022-12-29T05:34:41;90323.44;;;-145.29;83.91
6782;BME280;3428;42.670;23.284;2022-12-29T05:37:08;90327.56;;;-145.29;83.62
6782;BME280;3428;42.670;23.284;2022-12-29T05:39:35;90348.09;;;-145.29;83.26
6782;BME280;3428;42.670;23.284;2022-12-29T05:42:01;90311.09;;;-145.29;83.02
6782;BME280;3428;42.670;23.284;2022-12-29T05:44:28;90302.88;;;-145.29;82.66
6782;BME280;3428;42.670;23.284;2022-12-29T05:46:56;90348.09;;;-145.29;82.97
6782;BME280;3428;42.670;23.284;2022-12-29T05:49:23;90348.09;;;-145.29;83.12
6782;BME280;3428;42.670;23.284;2022-12-29T05:51:50;90341.94;;;-145.29;82.98
6782;BME280;3428;42.670;23.284;2022-12-29T05:54:17;90352.22;;;-145.29;82.78
6782;BME280;3428;42.670;23.284;2022-12-29T05:56:43;90339.88;;;-145.29;83.08
6782;BME280;3428;42.670;23.284;2022-12-29T05:59:10;90360.44;;;-145.29;83.15
6782;BME280;3428;42.670;23.284;2022-12-29T06:01:37;90319.34;;;-145.29;82.75
6782;BME280;3428;42.670;23.284;2022-12-29T06:04:05;90344.00;;;-145.29;82.74
6782;BME280;3428;42.670;23.284;2022-12-29T06:06:32;90356.31;;;-145.29;82.98
6782;BME280;3428;42.670;23.284;2022-12-29T06:08:58;90339.88;;;-145.29;82.67
6782;BME280;3428;42.670;23.284;2022-12-29T06:11:25;90315.22;;;-145.29;82.45
6782;BME280;3428;42.670;23.284;2022-12-29T06:13:52;90274.13;;;-145.29;82.22
6782;BME280;3428;42.670;23.284;2022-12-29T06:16:18;90327.56;;;-145.29;82.38
6782;BME280;3428;42.670;23.284;2022-12-29T06:18:45;90352.22;;;-145.29;82.69
6782;BME280;3428;42.670;23.284;2022-12-29T06:21:13;90317.28;;;-145.29;83.23
6782;BME280;3428;42.670;23.284;2022-12-29T06:23:40;90323.44;;;-145.29;82.75
6782;BME280;3428;42.670;23.284;2022-12-29T06:26:07;90331.66;;;-145.29;82.35
6782;BME280;3428;42.670;23.284;2022-12-29T06:28:35;90319.34;;;-145.29;82.25
6782;BME280;3428;42.670;23.284;2022-12-29T06:31:02;90344.00;;;-145.29;82.40
6782;BME280;3428;42.670;23.284;2022-12-29T06:33:29;90315.22;;;-145.29;82.38
6782;BME280;3428;42.670;23.284;2022-12-29T06:35:56;90311.09;;;-145.29;82.37
6782;BME280;3428;42.670;23.284;2022-12-29T06:38:24;90298.78;;;-145.29;82.09
6782;BME280;3428;42.670;23.284;2022-12-29T06:40:51;90278.22;;;-145.29;82.03
6782;BME280;3428;42.670;23.284;2022-12-29T06:43:18;90335.78;;;-145.29;81.63
6782;BME280;3428;42.670;23.284;2022-12-29T06:45:44;90319.34;;;-145.29;81.72
6782;BME280;3428;42.670;23.284;2022-12-29T06:48:11;90335.78;;;-145.29;82.66
6782;BME280;3428;42.670;23.284;2022-12-29T06:50:38;90296.72;;;-145.29;82.39
6782;BME280;3428;42.670;23.284;2022-12-29T06:53:05;90327.56;;;-145.29;82.08
6782;BME280;3428;42.670;23.284;2022-12-29T06:55:33;90290.56;;;-145.29;81.82
6782;BME280;3428;42.670;23.284;2022-12-29T06:58:00;90385.09;;;-145.29;81.95
6782;BME280;3428;42.670;23.284;2022-12-29T07:00:27;90323.44;;;-145.29;81.80
6782;BME280;3428;42.670;23.284;2022-12-29T07:02:55;90307.00;;;-145.29;81.63
6782;BME280;3428;42.670;23.284;2022-12-29T07:05:23;90278.22;;;-145.29;81.33
6782;BME280;3428;42.670;23.284;2022-12-29T07:07:50;90272.06;;;-145.29;80.78
6782;BME280;3428;42.670;23.284;2022-12-29T07:10:17;90261.78;;;-145.29;80.48
6782;BME280;3428;42.670;23.284;2022-12-29T07:12:45;90307.00;;;-145.29;80.26
6782;BME280;3428;42.670;23.284;2022-12-29T07:15:12;90261.78;;;-145.29;80.20
6782;BME280;3428;42.670;23.284;2022-12-29T07:17:39;90270.00;;;-145.29;80.15
6782;BME280;3428;42.670;23.284;2022-12-29T07:20:07;90249.47;;;-145.29;79.72
6782;BME280;3428;42.670;23.284;2022-12-29T07:22:34;90307.00;;;-145.29;79.34
6782;BME280;3428;42.670;23.284;2022-12-29T07:25:01;90257.69;;;-145.29;78.54
6782;BME280;3428;42.670;23.284;2022-12-29T07:27:28;90253.56;;;-145.29;77.95
6782;BME280;3428;42.670;23.284;2022-12-29T07:29:57;90189.88;;;-145.29;78.36
6782;BME280;3428;42.670;23.284;2022-12-29T07:32:23;90265.91;;;-145.29;78.78
6782;BME280;3428;42.670;23.284;2022-12-29T07:34:50;90228.91;;;-145.29;79.24
6782;BME280;3428;42.670;23.284;2022-12-29T07:37:17;90286.44;;;-145.29;79.05
6782;BME280;3428;42.670;23.284;2022-12-29T07:39:44;90257.69;;;-145.29;79.62
6782;BME280;3428;42.670;23.284;2022-12-29T07:42:10;90276.16;;;-145.29;79.66
6782;BME280;3428;42.670;23.284;2022-12-29T07:44:37;90302.88;;;-145.29;79.16
6782;BME280;3428;42.670;23.284;2022-12-29T07:47:05;90265.91;;;-145.29;78.88
6782;BME280;3428;42.670;23.284;2022-12-29T07:49:32;90204.25;;;-145.29;77.87
6782;BME280;3428;42.670;23.284;2022-12-29T07:51:59;90228.91;;;-145.29;78.27
6782;BME280;3428;42.670;23.284;2022-12-29T07:54:26;90241.25;;;-145.29;79.32
6782;BME280;3428;42.670;23.284;2022-12-29T07:56:52;90286.44;;;-145.29;79.22
6782;BME280;3428;42.670;23.284;2022-12-29T07:59:19;90294.66;;;-145.29;78.77
6782;BME280;3428;42.670;23.284;2022-12-29T08:01:46;90278.22;;;-145.29;79.00
6782;BME280;3428;42.670;23.284;2022-12-29T08:04:14;90270.00;;;-145.29;78.55
6782;BME280;3428;42.670;23.284;2022-12-29T08:06:41;90245.34;;;-145.29;78.47
6782;BME280;3428;42.670;23.284;2022-12-29T08:09:08;90245.34;;;-145.29;77.87
6782;BME280;3428;42.670;23.284;2022-12-29T08:11:35;90196.03;;;-145.29;78.22
6782;BME280;3428;42.670;23.284;2022-12-29T08:14:02;90171.38;;;-145.29;76.40
6782;BME280;3428;42.670;23.284;2022-12-29T08:16:28;90193.97;;;-145.29;75.51
6782;BME280;3428;42.670;23.284;2022-12-29T08:18:56;90138.50;;;-145.29;75.08
6782;BME280;3428;42.670;23.284;2022-12-29T08:21:24;90171.38;;;-145.29;74.60
6782;BME280;3428;42.670;23.284;2022-12-29T08:23:51;90179.59;;;-145.29;73.84
6782;BME280;3428;42.670;23.284;2022-12-29T08:26:17;90187.81;;;-145.29;73.71
6782;BME280;3428;42.670;23.284;2022-12-29T08:28:44;90163.16;;;-145.29;73.53
6782;BME280;3428;42.670;23.284;2022-12-29T08:31:11;90134.38;;;-145.29;72.93
6782;BME280;3428;42.670;23.284;2022-12-29T08:33:38;90175.47;;;-145.29;72.68
6782;BME280;3428;42.670;23.284;2022-12-29T08:36:06;90208.34;;;-145.29;72.59
6782;BME280;3428;42.670;23.284;2022-12-29T08:38:34;90171.38;;;-145.29;72.05
6782;BME280;3428;42.670;23.284;2022-12-29T08:41:01;90142.59;;;-145.29;73.62
6782;BME280;3428;42.670;23.284;2022-12-29T08:43:29;90167.25;;;-145.29;73.49
6782;BME280;3428;42.670;23.284;2022-12-29T08:45:57;90165.19;;;-145.29;73.02
6782;BME280;3428;42.670;23.284;2022-12-29T08:48:23;90148.75;;;-145.29;72.60
6782;BME280;3428;42.670;23.284;2022-12-29T08:50:50;90130.25;;;-145.29;72.18
6782;BME280;3428;42.670;23.284;2022-12-29T08:53:17;90117.94;;;-145.29;71.90
6782;BME280;3428;42.670;23.284;2022-12-29T08:55:46;90113.81;;;-145.29;71.46
6782;BME280;3428;42.670;23.284;2022-12-29T08:58:13;90089.16;;;-145.29;71.42
6782;BME280;3428;42.670;23.284;2022-12-29T09:00:42;90097.38;;;-145.29;71.20
6782;BME280;3428;42.670;23.284;2022-12-29T09:03:09;90138.50;;;-145.29;71.48
6782;BME280;3428;42.670;23.284;2022-12-29T09:05:35;90126.16;;;-145.29;71.92
6782;BME280;3428;42.670;23.284;2022-12-29T09:08:02;90167.25;;;-145.29;72.17
6782;BME280;3428;42.670;23.284;2022-12-29T09:10:30;90220.69;;;-145.29;74.13
6782;BME280;3428;42.670;23.284;2022-12-29T09:12:58;90146.72;;;-145.29;73.67
6782;BME280;3428;42.670;23.284;2022-12-29T09:15:25;90163.16;;;-145.29;73.29
6782;BME280;3428;42.670;23.284;2022-12-29T09:17:51;90159.03;;;-145.29;72.87
6782;BME280;3428;42.670;23.284;2022-12-29T09:20:20;90117.94;;;-145.29;72.70
6782;BME280;3428;42.670;23.284;2022-12-29T09:22:47;90146.72;;;-145.29;71.90
6782;BME280;3428;42.670;23.284;2022-12-29T09:25:15;90122.06;;;-145.29;71.33
6782;BME280;3428;42.670;23.284;2022-12-29T09:27:42;90117.94;;;-145.29;72.38
6782;BME280;3428;42.670;23.284;2022-12-29T09:30:12;90126.16;;;-145.29;71.81
6782;BME280;3428;42.670;23.284;2022-12-29T09:32:40;90171.38;;;-145.29;72.22
6782;BME280;3428;42.670;23.284;2022-12-29T09:35:07;90122.06;;;-145.29;72.30
6782;BME280;3428;42.670;23.284;2022-12-29T09:37:34;90122.06;;;-145.29;71.96
6782;BME280;3428;42.670;23.284;2022-12-29T09:40:01;90097.38;;;-145.29;71.70
6782;BME280;3428;42.670;23.284;2022-12-29T09:42:32;90126.16;;;-145.29;71.94
6782;BME280;3428;42.670;23.284;2022-12-29T09:45:12;90154.94;;;-145.29;71.89
6782;BME280;3428;42.670;23.284;2022-12-29T09:47:41;90113.81;;;-145.29;71.56
6782;BME280;3428;42.670;23.284;2022-12-29T09:50:14;90093.28;;;-145.29;71.65
6782;BME280;3428;42.670;23.284;2022-12-29T09:52:47;90091.22;;;-145.29;70.86
6782;BME280;3428;42.670;23.284;2022-12-29T09:55:16;90097.38;;;-145.29;70.81
6782;BME280;3428;42.670;23.284;2022-12-29T09:57:47;90078.91;;;-145.29;71.72
6782;BME280;3428;42.670;23.284;2022-12-29T10:00:19;90085.06;;;-145.29;72.86
6782;BME280;3428;42.670;23.284;2022-12-29T10:02:49;90048.06;;;-145.29;71.24
6782;BME280;3428;42.670;23.284;2022-12-29T10:05:23;90056.28;;;-145.29;69.92
6782;BME280;3428;42.670;23.284;2022-12-29T10:08:04;90023.41;;;-145.29;69.56
6782;BME280;3428;42.670;23.284;2022-12-29T10:10:38;90023.41;;;-145.29;68.96
6782;BME280;3428;42.670;23.284;2022-12-29T10:13:22;90058.34;;;-145.29;69.97
6782;BME280;3428;42.670;23.284;2022-12-29T10:15:59;90064.50;;;-145.29;70.28
6782;BME280;3428;42.670;23.284;2022-12-29T10:18:42;90027.53;;;-145.29;71.34
6782;BME280;3428;42.670;23.284;2022-12-29T10:21:17;90058.34;;;-145.29;70.24
6782;BME280;3428;42.670;23.284;2022-12-29T10:23:51;90027.53;;;-145.29;69.63
6782;BME280;3428;42.670;23.284;2022-12-29T10:26:20;90031.63;;;-145.29;72.98
6782;BME280;3428;42.670;23.284;2022-12-29T10:28:50;90025.47;;;-145.29;69.79
6782;BME280;3428;42.670;23.284;2022-12-29T10:31:22;90031.63;;;-145.29;69.04
6782;BME280;3428;42.670;23.284;2022-12-29T10:33:53;90058.34;;;-145.29;69.00
6782;BME280;3428;42.670;23.284;2022-12-29T10:36:28;90027.53;;;-145.29;68.92
6782;BME280;3428;42.670;23.284;2022-12-29T10:39:04;90023.41;;;-145.29;68.58
6782;BME280;3428;42.670;23.284;2022-12-29T10:41:36;89969.97;;;-145.29;70.73
6782;BME280;3428;42.670;23.284;2022-12-29T10:44:04;90027.53;;;-145.29;67.71
6782;BME280;3428;42.670;23.284;2022-12-29T10:46:35;90037.78;;;-145.29;67.65
6782;BME280;3428;42.670;23.284;2022-12-29T10:49:03;90060.41;;;-145.29;68.48
6782;BME280;3428;42.670;23.284;2022-12-29T10:51:37;90031.63;;;-145.29;68.63
6782;BME280;3428;42.670;23.284;2022-12-29T10:54:09;90006.97;;;-145.29;68.13
6782;BME280;3428;42.670;23.284;2022-12-29T10:56:40;90050.13;;;-145.29;67.97
6782;BME280;3428;42.670;23.284;2022-12-29T10:59:15;90085.06;;;-145.29;67.95
6782;BME280;3428;42.670;23.284;2022-12-29T11:01:52;90011.09;;;-145.29;68.04
6782;BME280;3428;42.670;23.284;2022-12-29T11:04:32;90031.63;;;-145.29;67.57
6782;BME280;3428;42.670;23.284;2022-12-29T11:07:03;90052.19;;;-145.29;68.42
6782;BME280;3428;42.670;23.284;2022-12-29T11:09:34;90066.56;;;-145.29;68.35
6782;BME280;3428;42.670;23.284;2022-12-29T11:12:18;90023.41;;;-145.29;68.33
6782;BME280;3428;42.670;23.284;2022-12-29T11:14:45;90031.63;;;-145.29;68.23
6782;BME280;3428;42.670;23.284;2022-12-29T11:17:16;90035.75;;;-145.29;68.48
6782;BME280;3428;42.670;23.284;2022-12-29T11:19:43;90021.34;;;-145.29;68.30
6782;BME280;3428;42.670;23.284;2022-12-29T11:22:19;90097.38;;;-145.29;68.36
6782;BME280;3428;42.670;23.284;2022-12-29T11:24:48;90043.97;;;-145.29;68.16
6782;BME280;3428;42.670;23.284;2022-12-29T11:27:16;90027.53;;;-145.29;68.11
6782;BME280;3428;42.670;23.284;2022-12-29T11:29:45;90074.78;;;-145.29;68.20
6782;BME280;3428;42.670;23.284;2022-12-29T11:32:17;90027.53;;;-145.29;67.84
6782;BME280;3428;42.670;23.284;2022-12-29T11:34:44;90023.41;;;-145.29;67.90
6782;BME280;3428;42.670;23.284;2022-12-29T11:37:13;90019.31;;;-145.29;67.77
6782;BME280;3428;42.670;23.284;2022-12-29T11:39:46;89988.47;;;-145.29;67.40
6782;BME280;3428;42.670;23.284;2022-12-29T11:42:17;89994.66;;;-145.29;66.51
6782;BME280;3428;42.670;23.284;2022-12-29T11:44:47;90023.41;;;-145.29;66.76
6782;BME280;3428;42.670;23.284;2022-12-29T11:47:25;90015.19;;;-145.29;66.52
6782;BME280;3428;42.670;23.284;2022-12-29T11:49:56;89998.75;;;-145.29;66.48
6782;BME280;3428;42.670;23.284;2022-12-29T11:52:25;89953.53;;;-145.29;66.11
6782;BME280;3428;42.670;23.284;2022-12-29T11:54:54;89986.41;;;-145.29;66.48
6782;BME280;3428;42.670;23.284;2022-12-29T11:57:23;89982.31;;;-145.29;67.08
6782;BME280;3428;42.670;23.284;2022-12-29T11:59:51;89990.53;;;-145.29;67.90
6782;BME280;3428;42.670;23.284;2022-12-29T12:02:53;89967.94;;;-145.29;66.93
6782;BME280;3428;42.670;23.284;2022-12-29T12:05:23;89988.47;;;-145.29;66.74
6782;BME280;3428;42.670;23.284;2022-12-29T12:07:55;89924.78;;;-145.29;67.97
6782;BME280;3428;42.670;23.284;2022-12-29T12:10:27;89924.78;;;-145.29;66.15
6782;BME280;3428;42.670;23.284;2022-12-29T12:13:10;89972.03;;;-145.29;66.28
6782;BME280;3428;42.670;23.284;2022-12-29T12:15:46;89937.09;;;-145.29;65.97
6782;BME280;3428;42.670;23.284;2022-12-29T12:18:21;89986.41;;;-145.29;66.17
6782;BME280;3428;42.670;23.284;2022-12-29T12:20:54;89969.97;;;-145.29;66.44
6782;BME280;3428;42.670;23.284;2022-12-29T12:23:31;89945.31;;;-145.29;66.33
6782;BME280;3428;42.670;23.284;2022-12-29T12:26:10;89933.00;;;-145.29;65.97
6782;BME280;3428;42.670;23.284;2022-12-29T12:28:44;89953.53;;;-145.29;65.97
6782;BME280;3428;42.670;23.284;2022-12-29T12:31:18;89916.56;;;-145.29;65.58
6782;BME280;3428;42.670;23.284;2022-12-29T12:33:53;89904.22;;;-145.29;65.68
6782;BME280;3428;42.670;23.284;2022-12-29T12:36:43;89937.09;;;-145.29;65.39
6782;BME280;3428;42.670;23.284;2022-12-29T12:39:22;89951.50;;;-145.29;65.72
6782;BME280;3428;42.670;23.284;2022-12-29T12:42:00;89957.66;;;-145.29;65.67
6782;BME280;3428;42.670;23.284;2022-12-29T12:44:38;89918.63;;;-145.29;67.32
6782;BME280;3428;42.670;23.284;2022-12-29T12:47:32;89920.66;;;-145.29;65.90
6782;BME280;3428;42.670;23.284;2022-12-29T12:50:26;89937.09;;;-145.29;65.96
6782;BME280;3428;42.670;23.284;2022-12-29T12:53:18;90002.84;;;-145.29;65.89
6782;BME280;3428;42.670;23.284;2022-12-29T12:56:03;89986.41;;;-145.29;66.07
6782;BME280;3428;42.670;23.284;2022-12-29T12:58:41;89947.38;;;-145.29;66.18
6782;BME280;3428;42.670;23.284;2022-12-29T13:01:21;89933.00;;;-145.29;65.98
6782;BME280;3428;42.670;23.284;2022-12-29T13:04:03;89945.31;;;-145.29;65.68
6782;BME280;3428;42.670;23.284;2022-12-29T13:06:41;89933.00;;;-145.29;65.92
6782;BME280;3428;42.670;23.284;2022-12-29T13:09:29;89945.31;;;-145.29;65.99
6782;BME280;3428;42.670;23.284;2022-12-29T13:12:07;89937.09;;;-145.29;65.75
6782;BME280;3428;42.670;23.284;2022-12-29T13:14:44;89945.31;;;-145.29;66.01
6782;BME280;3428;42.670;23.284;2022-12-29T13:17:19;89953.53;;;-145.29;66.00
6782;BME280;3428;42.670;23.284;2022-12-29T13:19:52;89912.44;;;-145.29;66.28